createdAt,value
2023-01-13T00:01:33.145Z,-67
2023-01-13T00:04:02.226Z,-67
2023-01-13T00:06:30.683Z,-67
2023-01-13T00:08:59.304Z,-67
2023-01-13T00:11:27.786Z,-69
2023-01-13T00:13:56.369Z,-67
2023-01-13T00:16:24.536Z,-67
2023-01-13T00:18:53.529Z,-67
2023-01-13T00:21:25.130Z,-67
2023-01-13T00:23:55.550Z,-67
2023-01-13T00:26:30.666Z,-67
2023-01-13T00:29:00.246Z,-67
2023-01-13T00:31:30.380Z,-67
2023-01-13T00:34:02.969Z,-67
2023-01-13T00:36:31.626Z,-68
2023-01-13T00:39:00.441Z,-68
2023-01-13T00:41:29.253Z,-68
2023-01-13T00:43:56.362Z,-68
2023-01-13T00:46:24.822Z,-68
2023-01-13T00:48:54.787Z,-68
2023-01-13T00:51:23.390Z,-68
2023-01-13T00:53:53.190Z,-68
2023-01-13T00:56:39.206Z,-68
2023-01-13T01:02:08.852Z,-74
2023-01-13T01:04:37.639Z,-73
2023-01-13T01:07:06.246Z,-74
2023-01-13T01:09:34.850Z,-74
2023-01-13T01:12:03.507Z,-74
2023-01-13T01:14:32.020Z,-74
2023-01-13T01:17:00.540Z,-74
2023-01-13T01:19:28.668Z,-74
2023-01-13T01:21:56.826Z,-74
2023-01-13T01:24:25.354Z,-74
2023-01-13T01:26:54.077Z,-74
2023-01-13T01:29:22.597Z,-74
2023-01-13T01:31:51.263Z,-74
2023-01-13T01:34:19.457Z,-74
2023-01-13T01:36:47.659Z,-74
2023-01-13T01:39:15.953Z,-74
2023-01-13T01:42:04.685Z,-74
2023-01-13T01:44:43.923Z,-74
2023-01-13T01:47:16.319Z,-74
2023-01-13T01:49:46.013Z,-74
2023-01-13T01:52:33.420Z,-74
2023-01-13T01:55:20.505Z,-74
2023-01-13T01:57:55.245Z,-74
2023-01-13T02:00:24.109Z,-74
2023-01-13T02:02:53.647Z,-74
2023-01-13T02:05:23.496Z,-74
2023-01-13T02:07:54.775Z,-74
2023-01-13T02:10:27.706Z,-74
2023-01-13T02:13:01.063Z,-74
2023-01-13T02:15:52.834Z,-74
2023-01-13T02:18:35.736Z,-74
2023-01-13T02:21:31.380Z,-74
2023-01-13T02:24:49.840Z,-74
2023-01-13T02:27:54.269Z,-74
2023-01-13T02:31:25.146Z,-73
2023-01-13T02:34:11.718Z,-74
2023-01-13T02:36:57.126Z,-74
2023-01-13T02:39:58.276Z,-74
2023-01-13T02:42:52.816Z,-74
2023-01-13T02:45:39.722Z,-75
2023-01-13T02:48:10.320Z,-74
2023-01-13T02:51:21.021Z,-74
2023-01-13T02:54:00.921Z,-74
2023-01-13T02:56:31.365Z,-74
2023-01-13T02:59:01.144Z,-74
2023-01-13T03:01:29.998Z,-74
2023-01-13T03:03:58.144Z,-74
2023-01-13T03:06:55.091Z,-73
2023-01-13T03:09:34.487Z,-74
2023-01-13T03:12:22.972Z,-74
2023-01-13T03:15:37.165Z,-74
2023-01-13T03:18:25.851Z,-74
2023-01-13T03:21:11.085Z,-74
2023-01-13T03:23:52.503Z,-74
2023-01-13T03:27:15.765Z,-74
2023-01-13T03:29:58.606Z,-74
2023-01-13T03:32:38.180Z,-75
2023-01-13T03:35:28.296Z,-74
2023-01-13T03:38:16.362Z,-74
2023-01-13T03:40:55.190Z,-74
2023-01-13T03:43:49.016Z,-74
2023-01-13T03:46:47.236Z,-74
2023-01-13T03:49:21.853Z,-74
2023-01-13T03:51:58.532Z,-75
2023-01-13T03:54:32.258Z,-74
2023-01-13T03:57:11.560Z,-75
2023-01-13T03:59:44.542Z,-75
2023-01-13T04:02:49.427Z,-74
2023-01-13T04:05:19.268Z,-74
2023-01-13T04:08:07.974Z,-75
2023-01-13T04:10:54.838Z,-74
2023-01-13T04:13:27.647Z,-74
2023-01-13T04:15:56.293Z,-74
2023-01-13T04:18:30.432Z,-74
2023-01-13T04:21:01.584Z,-75
2023-01-13T04:23:30.476Z,-75
2023-01-13T04:26:00.419Z,-75
2023-01-13T04:28:29.007Z,-75
2023-01-13T04:30:57.863Z,-75
2023-01-13T04:33:26.046Z,-75
2023-01-13T04:35:55.233Z,-74
2023-01-13T04:38:23.883Z,-74
2023-01-13T04:40:52.146Z,-75
2023-01-13T04:43:20.237Z,-74
2023-01-13T04:45:48.307Z,-74
2023-01-13T04:48:16.425Z,-75
2023-01-13T04:50:44.518Z,-75
2023-01-13T04:53:12.643Z,-74
2023-01-13T04:55:44.459Z,-74
2023-01-13T04:58:13.317Z,-74
2023-01-13T05:00:41.879Z,-75
2023-01-13T05:03:10.366Z,-75
2023-01-13T05:05:39.126Z,-75
2023-01-13T05:08:09.002Z,-74
2023-01-13T05:10:37.229Z,-74
2023-01-13T05:13:22.910Z,-74
2023-01-13T05:16:11.263Z,-74
2023-01-13T05:18:39.568Z,-75
2023-01-13T05:21:27.817Z,-74
2023-01-13T05:24:17.231Z,-75
2023-01-13T05:26:45.838Z,-74
2023-01-13T05:29:14.042Z,-74
2023-01-13T05:31:42.539Z,-74
2023-01-13T05:34:11.058Z,-75
2023-01-13T05:36:39.588Z,-74
2023-01-13T05:39:08.837Z,-74
2023-01-13T05:41:54.384Z,-74
2023-01-13T05:44:22.506Z,-74
2023-01-13T05:46:51.162Z,-74
2023-01-13T05:49:19.675Z,-76
2023-01-13T05:51:49.776Z,-76
2023-01-13T05:54:17.874Z,-75
2023-01-13T05:56:46.336Z,-74
2023-01-13T05:59:14.480Z,-74
2023-01-13T06:01:42.769Z,-75
2023-01-13T06:04:10.924Z,-75
2023-01-13T06:06:39.409Z,-74
2023-01-13T06:09:07.850Z,-74
2023-01-13T06:11:36.290Z,-74
2023-01-13T06:14:04.521Z,-75
2023-01-13T06:16:32.700Z,-75
2023-01-13T06:19:00.783Z,-74
2023-01-13T06:21:28.797Z,-74
2023-01-13T06:23:57.265Z,-75
2023-01-13T06:26:29.289Z,-75
2023-01-13T06:28:57.822Z,-75
2023-01-13T06:31:28.737Z,-75
2023-01-13T06:34:04.022Z,-75
2023-01-13T06:36:40.639Z,-74
2023-01-13T06:39:10.849Z,-74
2023-01-13T06:41:56.364Z,-74
2023-01-13T06:44:25.586Z,-74
2023-01-13T06:46:54.186Z,-74
2023-01-13T06:49:22.361Z,-74
2023-01-13T06:51:50.853Z,-74
2023-01-13T06:54:18.978Z,-74
2023-01-13T06:56:47.111Z,-74
2023-01-13T06:59:15.224Z,-74
2023-01-13T07:01:43.577Z,-71
2023-01-13T07:04:12.300Z,-74
2023-01-13T07:06:40.353Z,-73
2023-01-13T07:09:08.481Z,-73
2023-01-13T07:11:36.555Z,-74
2023-01-13T07:14:24.240Z,-74
2023-01-13T07:16:54.196Z,-73
2023-01-13T07:19:24.263Z,-74
2023-01-13T07:21:53.423Z,-73
2023-01-13T07:24:22.487Z,-74
2023-01-13T07:26:52.477Z,-73
2023-01-13T07:29:21.021Z,-73
2023-01-13T07:31:50.492Z,-74
2023-01-13T07:34:19.067Z,-73
2023-01-13T07:36:47.591Z,-73
2023-01-13T07:39:15.792Z,-73
2023-01-13T07:42:01.833Z,-74
2023-01-13T07:44:30.017Z,-73
2023-01-13T07:46:58.536Z,-74
2023-01-13T07:49:27.005Z,-74
2023-01-13T07:51:55.484Z,-74
2023-01-13T07:54:35.080Z,-74
2023-01-13T07:57:08.139Z,-74
2023-01-13T07:59:36.895Z,-74
2023-01-13T08:02:05.228Z,-74
2023-01-13T08:04:33.533Z,-74
2023-01-13T08:07:02.191Z,-73
2023-01-13T08:09:30.284Z,-74
2023-01-13T08:12:12.723Z,-74
2023-01-13T08:14:40.910Z,-73
2023-01-13T08:17:10.706Z,-73
2023-01-13T08:19:38.848Z,-74
2023-01-13T08:22:07.322Z,-73
2023-01-13T08:24:35.466Z,-73
2023-01-13T08:27:03.971Z,-74
2023-01-13T08:29:32.128Z,-74
2023-01-13T08:32:00.280Z,-73
2023-01-13T08:34:28.722Z,-74
2023-01-13T08:36:57.159Z,-74
2023-01-13T08:39:25.908Z,-73
2023-01-13T08:41:56.775Z,-74
2023-01-13T08:44:30.678Z,-74
2023-01-13T08:46:59.732Z,-74
2023-01-13T08:49:28.185Z,-73
2023-01-13T08:51:56.361Z,-73
2023-01-13T08:54:24.483Z,-74
2023-01-13T08:56:53.194Z,-74
2023-01-13T08:59:21.817Z,-73
2023-01-13T09:01:50.389Z,-73
2023-01-13T09:04:22.952Z,-74
2023-01-13T09:06:51.917Z,-73
2023-01-13T09:09:20.848Z,-73
2023-01-13T09:12:09.334Z,-73
2023-01-13T09:14:39.485Z,-73
2023-01-13T09:17:08.600Z,-73
2023-01-13T09:19:37.209Z,-74
2023-01-13T09:22:05.776Z,-73
2023-01-13T09:24:34.014Z,-73
2023-01-13T09:27:02.464Z,-73
2023-01-13T09:29:30.842Z,-74
2023-01-13T09:31:59.480Z,-73
2023-01-13T09:34:45.430Z,-73
2023-01-13T09:37:14.011Z,-74
2023-01-13T09:39:42.082Z,-73
2023-01-13T09:43:03.880Z,-73
2023-01-13T09:45:43.604Z,-73
2023-01-13T09:48:28.190Z,-74
2023-01-13T09:51:16.846Z,-73
2023-01-13T09:54:03.308Z,-73
2023-01-13T09:56:31.712Z,-73
2023-01-13T09:59:00.244Z,-73
2023-01-13T10:01:54.792Z,-73
2023-01-13T10:04:23.081Z,-73
2023-01-13T10:06:57.395Z,-73
2023-01-13T10:09:52.835Z,-74
2023-01-13T10:12:43.728Z,-73
2023-01-13T10:15:23.108Z,-73
2023-01-13T10:18:20.823Z,-74
2023-01-13T10:21:27.091Z,-73
2023-01-13T10:24:08.679Z,-73
2023-01-13T10:27:05.075Z,-73
2023-01-13T10:29:34.683Z,-73
2023-01-13T10:32:02.822Z,-73
2023-01-13T10:34:31.471Z,-73
2023-01-13T10:37:06.380Z,-73
2023-01-13T10:39:48.217Z,-73
2023-01-13T10:42:22.980Z,-73
2023-01-13T10:45:01.026Z,-74
2023-01-13T10:47:37.019Z,-73
2023-01-13T10:50:13.985Z,-73
2023-01-13T10:53:16.558Z,-73
2023-01-13T10:56:00.116Z,-73
2023-01-13T10:58:28.632Z,-73
2023-01-13T11:01:07.205Z,-73
2023-01-13T11:03:41.763Z,-73
2023-01-13T11:06:21.387Z,-73
2023-01-13T11:08:52.483Z,-73
2023-01-13T11:11:44.900Z,-73
2023-01-13T11:14:41.718Z,-73
2023-01-13T11:17:29.574Z,-73
2023-01-13T11:20:13.007Z,-73
2023-01-13T11:22:55.704Z,-73
2023-01-13T11:25:43.052Z,-73
2023-01-13T11:28:32.922Z,-73
2023-01-13T11:31:07.128Z,-72
2023-01-13T11:34:03.489Z,-72
2023-01-13T11:36:47.726Z,-73
2023-01-13T11:39:57.888Z,-73
2023-01-13T11:43:11.738Z,-73
2023-01-13T11:45:49.032Z,-73
2023-01-13T11:48:22.349Z,-73
2023-01-13T11:51:02.234Z,-72
2023-01-13T11:54:29.407Z,-73
2023-01-13T11:57:19.410Z,-73
2023-01-13T12:00:05.683Z,-74
2023-01-13T12:02:45.716Z,-73
2023-01-13T12:05:31.426Z,-73
2023-01-13T12:08:27.354Z,-73
2023-01-13T12:11:19.023Z,-73
2023-01-13T12:13:47.020Z,-73
2023-01-13T12:16:32.552Z,-73
2023-01-13T12:19:21.801Z,-73
2023-01-13T12:22:13.985Z,-73
2023-01-13T12:24:56.723Z,-73
2023-01-13T12:27:47.148Z,-72
2023-01-13T12:30:29.823Z,-73
2023-01-13T12:33:18.650Z,-73
2023-01-13T12:36:00.738Z,-73
2023-01-13T12:38:38.932Z,-73
2023-01-13T12:42:00.384Z,-73
2023-01-13T12:44:27.492Z,-73
2023-01-13T12:46:58.840Z,-72
2023-01-13T12:49:36.560Z,-73
2023-01-13T12:52:12.689Z,-73
2023-01-13T12:54:43.955Z,-73
2023-01-13T12:57:28.524Z,-73
2023-01-13T13:00:10.130Z,-72
2023-01-13T13:02:42.150Z,-73
2023-01-13T13:05:16.451Z,-74
2023-01-13T13:07:52.612Z,-74
2023-01-13T13:10:31.881Z,-74
2023-01-13T13:13:20.369Z,-74
2023-01-13T13:15:51.598Z,-74
2023-01-13T13:18:20.466Z,-75
2023-01-13T13:20:56.165Z,-72
2023-01-13T13:24:03.090Z,-72
2023-01-13T13:26:42.425Z,-72
2023-01-13T13:30:02.117Z,-72
2023-01-13T13:32:47.667Z,-72
2023-01-13T13:35:51.858Z,-72
2023-01-13T13:38:45.968Z,-72
2023-01-13T13:41:42.684Z,-72
2023-01-13T13:44:37.924Z,-72
2023-01-13T13:47:07.455Z,-72
2023-01-13T13:49:37.986Z,-72
2023-01-13T13:52:12.871Z,-72
2023-01-13T13:54:47.637Z,-72
2023-01-13T13:57:20.681Z,-72
2023-01-13T13:59:56.149Z,-72
2023-01-13T14:02:38.279Z,-72
2023-01-13T14:05:34.532Z,-72
2023-01-13T14:08:18.982Z,-72
2023-01-13T14:10:48.369Z,-72
2023-01-13T14:13:31.756Z,-72
2023-01-13T14:16:11.110Z,-72
2023-01-13T14:18:47.738Z,-72
2023-01-13T14:21:29.214Z,-72
2023-01-13T14:24:10.598Z,-74
2023-01-13T14:26:39.411Z,-74
2023-01-13T14:29:10.240Z,-74
2023-01-13T14:31:40.817Z,-74
2023-01-13T14:34:31.207Z,-74
2023-01-13T14:36:59.920Z,-74
2023-01-13T14:39:38.888Z,-74
2023-01-13T14:42:14.436Z,-74
2023-01-13T14:44:50.559Z,-74
2023-01-13T14:47:22.955Z,-72
2023-01-13T14:50:12.997Z,-72
2023-01-13T14:52:54.651Z,-72
2023-01-13T14:55:38.532Z,-72
2023-01-13T14:58:29.519Z,-72
2023-01-13T15:01:36.456Z,-72
2023-01-13T15:04:38.211Z,-72
2023-01-13T15:07:08.184Z,-72
2023-01-13T15:09:45.771Z,-72
2023-01-13T15:12:44.293Z,-72
2023-01-13T15:15:36.881Z,-72
2023-01-13T15:18:17.024Z,-72
2023-01-13T15:20:45.742Z,-72
2023-01-13T15:23:14.161Z,-72
2023-01-13T15:25:49.828Z,-72
2023-01-13T15:28:26.032Z,-72
2023-01-13T15:31:00.526Z,-72
2023-01-13T15:33:29.137Z,-72
2023-01-13T15:35:57.801Z,-72
2023-01-13T15:41:38.988Z,-72
2023-01-13T15:44:24.801Z,-72
2023-01-13T15:46:53.491Z,-72
2023-01-13T15:49:44.173Z,-72
2023-01-13T15:52:26.489Z,-72
2023-01-13T15:54:55.730Z,-72
2023-01-13T15:57:33.215Z,-72
2023-01-13T16:00:13.433Z,-72
2023-01-13T16:02:41.964Z,-72
2023-01-13T16:05:10.504Z,-72
2023-01-13T16:07:39.109Z,-72
2023-01-13T16:10:17.178Z,-72
2023-01-13T16:12:45.699Z,-72
2023-01-13T16:15:22.236Z,-72
2023-01-13T16:17:57.615Z,-72
2023-01-13T16:20:26.399Z,-72
2023-01-13T16:22:54.770Z,-72
2023-01-13T16:25:26.899Z,-74
2023-01-13T16:27:55.349Z,-72
2023-01-13T16:30:37.864Z,-71
2023-01-13T16:33:05.934Z,-73
2023-01-13T16:35:35.327Z,-73
2023-01-13T16:38:03.839Z,-72
2023-01-13T16:40:37.215Z,-73
2023-01-13T16:43:06.868Z,-72
2023-01-13T16:45:35.395Z,-73
2023-01-13T16:48:04.445Z,-75
2023-01-13T16:50:41.642Z,-73
2023-01-13T16:53:11.049Z,-73
2023-01-13T16:55:41.203Z,-72
2023-01-13T16:58:19.279Z,-72
2023-01-13T17:00:48.741Z,-72
2023-01-13T17:03:17.520Z,-73
2023-01-13T17:05:47.999Z,-72
2023-01-13T17:08:19.201Z,-72
2023-01-13T17:10:48.194Z,-72
2023-01-13T17:13:17.987Z,-72
2023-01-13T17:15:47.128Z,-73
2023-01-13T17:18:15.608Z,-73
2023-01-13T17:20:43.761Z,-73
2023-01-13T17:23:12.229Z,-73
2023-01-13T17:25:40.690Z,-74
2023-01-13T17:28:08.819Z,-73
2023-01-13T17:30:37.376Z,-73
2023-01-13T17:33:06.089Z,-73
2023-01-13T17:35:34.080Z,-74
2023-01-13T17:38:03.080Z,-73
2023-01-13T17:40:31.553Z,-73
2023-01-13T17:43:00.049Z,-75
2023-01-13T17:45:28.176Z,-73
2023-01-13T17:47:59.654Z,-75
2023-01-13T17:50:28.224Z,-73
2023-01-13T17:52:56.746Z,-74
2023-01-13T17:55:25.341Z,-74
2023-01-13T17:57:53.938Z,-74
2023-01-13T18:00:22.651Z,-73
2023-01-13T18:02:51.097Z,-74
2023-01-13T18:05:19.513Z,-73
2023-01-13T18:07:47.930Z,-74
2023-01-13T18:10:16.099Z,-74
2023-01-13T18:12:44.175Z,-74
2023-01-13T18:15:12.646Z,-73
2023-01-13T18:17:41.081Z,-73
2023-01-13T18:20:28.460Z,-73
2023-01-13T18:23:14.085Z,-73
2023-01-13T18:25:59.350Z,-73
2023-01-13T18:28:27.762Z,-73
2023-01-13T18:30:56.277Z,-73
2023-01-13T18:33:25.016Z,-73
2023-01-13T18:35:53.542Z,-73
2023-01-13T18:38:22.080Z,-73
2023-01-13T18:40:50.546Z,-73
2023-01-13T18:43:17.987Z,-73
2023-01-13T18:45:52.119Z,-73
2023-01-13T18:48:20.669Z,-73
2023-01-13T18:50:49.080Z,-74
2023-01-13T18:53:17.628Z,-74
2023-01-13T18:55:45.832Z,-74
2023-01-13T18:58:14.398Z,-73
2023-01-13T19:00:42.784Z,-68
2023-01-13T19:03:12.797Z,-67
2023-01-13T19:05:41.077Z,-68
2023-01-13T19:08:09.957Z,-67
2023-01-13T19:10:39.941Z,-68
2023-01-13T19:13:08.432Z,-68
2023-01-13T19:15:38.422Z,-68
2023-01-13T19:18:06.704Z,-68
2023-01-13T19:20:35.084Z,-67
2023-01-13T19:23:03.515Z,-68
2023-01-13T19:25:32.070Z,-68
2023-01-13T19:28:00.261Z,-68
2023-01-13T19:30:28.792Z,-67
2023-01-13T19:32:57.444Z,-68
2023-01-13T19:35:25.913Z,-67
2023-01-13T19:37:54.463Z,-67
2023-01-13T19:40:22.902Z,-68
2023-01-13T19:43:07.898Z,-68
2023-01-13T19:45:36.537Z,-68
2023-01-13T19:48:05.882Z,-68
2023-01-13T19:50:38.733Z,-68
2023-01-13T19:53:08.415Z,-68
2023-01-13T19:55:37.066Z,-69
2023-01-13T19:58:05.970Z,-67
2023-01-13T20:00:34.973Z,-68
2023-01-13T20:03:08.107Z,-68
2023-01-13T20:05:36.866Z,-70
2023-01-13T20:08:05.696Z,-68
2023-01-13T20:10:33.982Z,-68
2023-01-13T20:13:02.312Z,-68
2023-01-13T20:15:31.172Z,-69
2023-01-13T20:18:00.587Z,-69
2023-01-13T20:20:28.807Z,-69
2023-01-13T20:22:58.140Z,-67
2023-01-13T20:25:28.825Z,-70
2023-01-13T20:27:58.627Z,-67
2023-01-13T20:30:26.917Z,-67
2023-01-13T20:32:55.679Z,-67
2023-01-13T20:35:29.668Z,-66
2023-01-13T20:37:58.364Z,-67
2023-01-13T20:40:26.908Z,-67
2023-01-13T20:42:54.718Z,-67
2023-01-13T20:45:23.496Z,-66
2023-01-13T20:47:52.084Z,-67
2023-01-13T20:50:20.688Z,-67
2023-01-13T20:52:49.390Z,-67
2023-01-13T20:55:17.519Z,-66
2023-01-13T20:57:48.676Z,-68
2023-01-13T21:00:17.587Z,-68
2023-01-13T21:02:46.430Z,-68
2023-01-13T21:05:15.004Z,-69
2023-01-13T21:07:43.523Z,-70
2023-01-13T21:10:12.549Z,-68
2023-01-13T21:12:58.274Z,-69
2023-01-13T21:15:27.530Z,-68
2023-01-13T21:18:13.318Z,-68
2023-01-13T21:20:41.797Z,-68
2023-01-13T21:23:11.344Z,-68
2023-01-13T21:25:40.279Z,-68
2023-01-13T21:28:11.625Z,-68
2023-01-13T21:30:40.832Z,-68
2023-01-13T21:33:09.276Z,-68
2023-01-13T21:35:40.231Z,-68
2023-01-13T21:38:08.738Z,-68
2023-01-13T21:40:37.449Z,-69
2023-01-13T21:43:23.200Z,-70
2023-01-13T21:46:09.098Z,-68
2023-01-13T21:48:37.776Z,-68
2023-01-13T21:51:06.351Z,-69
2023-01-13T21:53:34.828Z,-68
2023-01-13T21:56:03.345Z,-68
2023-01-13T21:58:31.912Z,-69
2023-01-13T22:01:04.137Z,-68
2023-01-13T22:03:54.778Z,-68
2023-01-13T22:06:24.027Z,-69
2023-01-13T22:08:53.985Z,-68
2023-01-13T22:11:22.501Z,-68
2023-01-13T22:14:10.220Z,-69
2023-01-13T22:16:49.424Z,-69
2023-01-13T22:19:18.335Z,-69
2023-01-13T22:21:46.912Z,-67
2023-01-13T22:24:15.326Z,-69
2023-01-13T22:26:43.735Z,-69
2023-01-13T22:29:12.157Z,-68
2023-01-13T22:31:40.846Z,-68
2023-01-13T22:34:11.451Z,-68
2023-01-13T22:36:39.673Z,-68
2023-01-13T22:39:08.259Z,-68
2023-01-13T22:41:36.782Z,-69
2023-01-13T22:44:05.220Z,-68
2023-01-13T22:46:33.342Z,-69
2023-01-13T22:49:01.435Z,-69
2023-01-13T22:51:30.546Z,-68
2023-01-13T22:53:59.110Z,-69
2023-01-13T22:56:28.433Z,-69
2023-01-13T22:58:59.773Z,-69
2023-01-13T23:01:32.018Z,-68
2023-01-13T23:04:00.621Z,-68
2023-01-13T23:06:31.787Z,-70
2023-01-13T23:09:01.400Z,-68
2023-01-13T23:11:31.432Z,-68
2023-01-13T23:14:06.584Z,-68
2023-01-13T23:16:39.148Z,-68
2023-01-13T23:19:09.216Z,-69
2023-01-13T23:21:39.444Z,-68
2023-01-13T23:24:08.992Z,-68
2023-01-13T23:26:38.066Z,-69
2023-01-13T23:29:12.148Z,-69
2023-01-13T23:31:40.985Z,-69
2023-01-13T23:34:09.228Z,-68
2023-01-13T23:36:41.078Z,-69
2023-01-13T23:39:09.557Z,-69
2023-01-13T23:41:38.118Z,-68
2023-01-13T23:44:06.984Z,-68
2023-01-13T23:46:35.953Z,-68
2023-01-13T23:49:05.004Z,-68
2023-01-13T23:51:33.498Z,-68
2023-01-13T23:54:02.263Z,-68
2023-01-13T23:56:33.030Z,-69
2023-01-13T23:59:02.183Z,-69
